Roma, Italy

12:52 AM CET on December 28, 2014 (GMT +0100)
ILAZIORO10 | Change Station
CLOSE
Current Station
Personal Weather Station
Location: Rome, LAZIO
Elevation: 0 ft
Nearby Weather Stations

Elev 0 ft 41.85 °N, 12.47 °E | Updated 331 days ago

Rain
Rain
46 °F
Feels Like 46 °F
N
10
Wind Variable Wind from WNW
Gusts mph

Today
High -- | Low -- °F
--% Chance of Precip.
Yesterday
High -- | Low -- °F
Precip. -- in
7:36 AM 4:46 PM
Waxing Crescent, 41% visible
Pressure 29.47 in
Visibility 5.0 miles
Clouds Few 1700 ft
Few 2000 ft
Mostly Cloudy 3500 ft
Dew Point 41 °F
Humidity 80%
Rainfall 0.00 in
Snow Depth Not available.
UV 0 out of 12
Pollen Not available.
Air Quality Not available.
Flu Activity Not available.
METAR LIRA 272315Z 36010KT 300V050 8000 -RA FEW017 FEW020TCU BKN035 10/08 Q0998

More Conditions Fewer Conditions

Pressure 29.47 in
Visibility 5.0 miles
Clouds Few 1700 ft
Few 2000 ft
Mostly Cloudy 3500 ft
Dew Point 41 °F
Humidity 80%
Rainfall 0.00 in
Snow Depth Not available.
UV 0 out of 12
Pollen Not available.
Air Quality Not available.
Flu Activity Not available.
METAR LIRA 272315Z 36010KT 300V050 8000 -RA FEW017 FEW020TCU BKN035 10/08 Q0998

More Conditions Fewer Conditions

10-Day Weather Forecast

Almanac

Astronomy

Dec. 28, 2014 Rise Set
Actual Time
Civil Twilight
Nautical Twilight
Astronomical Twilight
Moon
Length of Visible Light
Length of Day
Tomorrow will be .
, % of the Moon is Illuminated

Today's Extremes

Country Highs Country Lows

Community

WunderPhotos

Upload Photos

1,781,110 photos uploaded!

WunderBlogs® & News

Nearby

Air Quality

  Air Quality AQ Index Pollutant
Not available.

Snow Depth

Station Depth Elevation

Earthquake Activity

City Distance Mag. Time & Date
Minimum magnitude displayed is 2.5.

Coastal Water Temperatures

Place Temperature

Nearby Weather Stations